Gerd Maersk — OYGM2 — position and weather

sailwx.info

Track history (hours):
 
Tides and Currents Weather Stations Pressure Air Temp Water Temp Dewpoint Dewpoint Depression Visibility Wind Speed Wind Dir Waves Ship Positions

Gerd Maersk

Last reported at 2017-Jun-23 22:36 UTC. Time now 2017-Jun-26 19:17 UTC.
Position N 40°52' W 133°11'.

Length 367 m; draft 12.9 m.

Type: Ship (hazmat cat A). MMSI: 220415000.

Date/timePositionNaut miles runAvg speedWind from/ knotsBaromVisibWave heightAir tempDewpointWater temp
2017-Jun-23 22:36N 40°52' W 133°11'318.4
2017-Jun-23 22:26N 40°50' W 133°08'818.3
2017-Jun-23 22:01N 40°46' W 132°59'918.2
2017-Jun-23 21:30N 40°41' W 132°49'918.1
2017-Jun-23 20:59N 40°36' W 132°38'917.9
2017-Jun-23 20:29N 40°31' W 132°28'917.9
2017-Jun-23 20:00N 40°27' W 132°19'1118.2
2017-Jun-23 19:24N 40°21' W 132°07'818.0
2017-Jun-23 18:59N 40°17' W 131°58'1017.9
2017-Jun-23 18:25N 40°12' W 131°47'718.2
2017-Jun-23 18:00N 40°08' W 131°39'918.0
2017-Jun-23 17:31N 40°03' W 131°29'918.1
2017-Jun-23 17:00N 39°58' W 131°18'918.2
2017-Jun-23 16:30N 39°53' W 131°09'918.2
2017-Jun-23 16:01N 39°48' W 130°59'1718.1
2017-Jun-23 15:05N 39°39' W 130°41'7817.7
2017-Jun-23 10:41N 38°56' W 129°17'517.4
2017-Jun-23 10:25N 38°54' W 129°12'717.3
2017-Jun-23 10:00N 38°50' W 129°04'917.0
2017-Jun-23 09:30N 38°45' W 128°55'5017.2
2017-Jun-23 06:34N 38°16' W 128°02'116.6
2017-Jun-23 06:30N 38°15' W 128°01'1310.6
2017-Jun-23 05:18N 38°10' W 127°47'711.0
2017-Jun-23 04:42N 38°09' W 127°38'311.0
2017-Jun-23 04:27N 38°09' W 127°35'1010.9
2017-Jun-23 03:33N 38°10' W 127°22'110.7
2017-Jun-23 03:30N 38°10' W 127°22'610.7
2017-Jun-23 02:56N 38°10' W 127°14'510.6
2017-Jun-23 02:30N 38°10' W 127°08'510.7
2017-Jun-23 01:59N 38°10' W 127°01'510.5
2017-Jun-23 01:30N 38°10' W 126°54'510.6
2017-Jun-23 01:00N 38°10' W 126°48'510.8
2017-Jun-23 00:31N 38°10' W 126°41'610.9
2017-Jun-23 00:00N 38°10' W 126°34'710.9
2017-Jun-22 23:22N 38°10' W 126°25'1511.2
2017-Jun-22 22:00N 38°10' W 126°06'611.3
2017-Jun-22 21:30N 38°10' W 125°59'5611.0
2017-Jun-22 16:24N 38°09' W 124°47'410.7
2017-Jun-22 16:00N 38°09' W 124°42'510.4
2017-Jun-22 15:30N 38°10' W 124°35'510.3
2017-Jun-22 15:00N 38°10' W 124°28'1210.3
2017-Jun-22 13:52N 38°09' W 124°14'410.1
2017-Jun-22 13:27N 38°09' W 124°08'510.7
2017-Jun-22 12:58N 38°10' W 124°02'510.5
2017-Jun-22 12:30N 38°10' W 123°55'510.5
2017-Jun-22 12:00N 38°10' W 123°49'510.4
2017-Jun-22 11:30N 38°09' W 123°42'510.9
2017-Jun-22 11:00N 38°09' W 123°35'611.7
2017-Jun-22 10:30N 38°09' W 123°28'611.2
2017-Jun-22 10:00N 38°09' W 123°21'611.5
2017-Jun-22 09:30N 38°05' W 123°16'611.7
2017-Jun-22 09:00N 38°01' W 123°11'611.5
2017-Jun-22 08:30N 37°57' W 123°05'611.6
2017-Jun-22 08:00N 37°54' W 122°59'611.8
2017-Jun-22 07:30N 37°51' W 122°52'612.0
2017-Jun-22 07:00N 37°48' W 122°46'5 9.5
2017-Jun-22 06:31N 37°46' W 122°40'815.2
2017-Jun-22 06:00N 37°48' W 122°31'611.9
2017-Jun-22 05:31N 37°49' W 122°24'4 7.5
2017-Jun-22 04:59N 37°48' W 122°19'0 0.1
2017-Jun-22 04:29N 37°48' W 122°19'0 0.0
2017-Jun-22 03:59N 37°48' W 122°19'0 0.0
2017-Jun-22 03:26N 37°48' W 122°19'0 0.0
2017-Jun-22 02:59N 37°48' W 122°19'0 0.0
2017-Jun-22 02:29N 37°48' W 122°19'0 0.0
2017-Jun-22 01:56N 37°48' W 122°19'0 0.0
2017-Jun-22 01:29N 37°48' W 122°19'0 0.0
2017-Jun-22 00:59N 37°48' W 122°19'0 0.0
2017-Jun-22 00:29N 37°48' W 122°19'0 0.0
2017-Jun-21 23:59N 37°48' W 122°19'0 0.0
2017-Jun-21 23:29N 37°48' W 122°19'0 0.0
2017-Jun-21 22:56N 37°48' W 122°19'0 0.0
2017-Jun-21 22:29N 37°48' W 122°19'0 0.0
2017-Jun-21 21:59N 37°48' W 122°19'0 0.0
2017-Jun-21 21:29N 37°48' W 122°19'0 0.0
2017-Jun-21 20:59N 37°48' W 122°19'0 0.0
2017-Jun-21 20:29N 37°48' W 122°19'0 0.0
2017-Jun-21 19:59N 37°48' W 122°19'0 0.0
2017-Jun-21 19:29N 37°48' W 122°19'0 0.0
2017-Jun-21 18:59N 37°48' W 122°19'0 0.0
2017-Jun-21 18:29N 37°48' W 122°19'0 0.0
2017-Jun-21 17:59N 37°48' W 122°19'0 0.0
2017-Jun-21 17:29N 37°48' W 122°19'0 0.0
2017-Jun-21 16:59N 37°48' W 122°19'0 0.0
2017-Jun-21 16:29N 37°48' W 122°19'0 0.0
2017-Jun-21 15:59N 37°48' W 122°19'0 0.0
2017-Jun-21 15:26N 37°48' W 122°19'0 0.0
2017-Jun-21 14:59N 37°48' W 122°19'0 0.0
2017-Jun-21 14:29N 37°48' W 122°19'0 0.0
2017-Jun-21 13:29N 37°48' W 122°19'0 0.0
2017-Jun-21 12:59N 37°48' W 122°19'0 0.0
2017-Jun-21 12:29N 37°48' W 122°19'0 0.0
2017-Jun-21 11:59N 37°48' W 122°19'0 0.0
2017-Jun-21 11:29N 37°48' W 122°19'0 0.0
2017-Jun-21 10:59N 37°48' W 122°19'0 0.0
2017-Jun-21 10:29N 37°48' W 122°19'0 0.0
2017-Jun-21 09:59N 37°48' W 122°19'0 0.0
2017-Jun-21 09:29N 37°48' W 122°19'0 0.0
2017-Jun-21 08:59N 37°48' W 122°19'0 0.0
2017-Jun-21 08:29N 37°48' W 122°19'0 0.0
2017-Jun-21 07:59N 37°48' W 122°19'0 0.0
2017-Jun-21 07:29N 37°48' W 122°19'0 0.0
2017-Jun-21 06:59N 37°48' W 122°19'0 0.0
2017-Jun-21 06:29N 37°48' W 122°19'0 0.0
2017-Jun-21 05:59N 37°48' W 122°19'0 0.0
2017-Jun-21 05:29N 37°48' W 122°19'0 0.0
2017-Jun-21 04:59N 37°48' W 122°19'0 0.0
2017-Jun-21 04:29N 37°48' W 122°19'0 0.0
2017-Jun-21 03:56N 37°48' W 122°19'0 0.0
2017-Jun-21 03:29N 37°48' W 122°19'0 0.0
2017-Jun-21 02:59N 37°48' W 122°19'0 0.0
2017-Jun-21 02:29N 37°48' W 122°19'0 0.0
2017-Jun-21 01:59N 37°48' W 122°19'0 0.0
2017-Jun-21 01:29N 37°48' W 122°19'0 0.0
2017-Jun-21 00:59N 37°48' W 122°19'0 0.0
2017-Jun-21 00:29N 37°48' W 122°19'0 0.0
2017-Jun-20 23:59N 37°48' W 122°19'0 0.0
2017-Jun-20 23:29N 37°48' W 122°19'0 0.0
2017-Jun-20 22:59N 37°48' W 122°19'0 0.0
2017-Jun-20 22:29N 37°48' W 122°19'0 0.0
2017-Jun-20 21:56N 37°48' W 122°19'0 0.0
2017-Jun-20 21:29N 37°48' W 122°19'0 0.0
2017-Jun-20 20:59N 37°48' W 122°19'0 0.0
2017-Jun-20 20:29N 37°48' W 122°19'0 0.0
2017-Jun-20 19:59N 37°48' W 122°19'0 0.0
2017-Jun-20 19:29N 37°48' W 122°19'0 0.0
2017-Jun-20 18:59N 37°48' W 122°19'0 0.0
2017-Jun-20 18:29N 37°48' W 122°19'0 0.0
2017-Jun-20 17:59N 37°48' W 122°19'0 0.0
2017-Jun-20 17:29N 37°48' W 122°19'0 0.0
2017-Jun-20 16:59N 37°48' W 122°19'0 0.0
2017-Jun-20 16:29N 37°48' W 122°19'0 0.0
2017-Jun-20 15:59N 37°48' W 122°19'0 0.0
2017-Jun-20 15:29N 37°48' W 122°19'0 0.0
2017-Jun-20 14:56N 37°48' W 122°19'0 0.0
2017-Jun-20 13:59N 37°48' W 122°19'0 0.0
2017-Jun-20 13:29N 37°48' W 122°19'0 0.0
2017-Jun-20 12:59N 37°48' W 122°19'0 0.0
2017-Jun-20 12:29N 37°48' W 122°19'0 0.0
2017-Jun-20 11:59N 37°48' W 122°19'0 0.0
2017-Jun-20 11:29N 37°48' W 122°19'0 0.0
2017-Jun-20 10:59N 37°48' W 122°19'0 0.0
2017-Jun-20 10:29N 37°48' W 122°19'0 0.0
2017-Jun-20 09:59N 37°48' W 122°19'0 0.0
2017-Jun-20 09:29N 37°48' W 122°19'0 0.0
2017-Jun-20 08:59N 37°48' W 122°19'0 0.0
2017-Jun-20 08:29N 37°48' W 122°19'0 0.0
2017-Jun-20 07:59N 37°48' W 122°19'0 0.0
2017-Jun-20 07:29N 37°48' W 122°19'0 0.0
2017-Jun-20 06:59N 37°48' W 122°19'0 0.0
2017-Jun-20 06:29N 37°48' W 122°19'0 0.0
2017-Jun-20 06:00N 37°48' W 122°19'1 1.1
2017-Jun-20 05:30N 37°48' W 122°18'1 1.1
2017-Jun-20 05:01N 37°48' W 122°18'2 3.5
2017-Jun-20 04:31N 37°48' W 122°20'4 8.8
2017-Jun-20 04:00N 37°49' W 122°25'713.5
2017-Jun-20 03:31N 37°47' W 122°33'713.3
2017-Jun-20 03:00N 37°44' W 122°41'5 9.4
2017-Jun-20 02:31N 37°39' W 122°40'611.9
2017-Jun-20 02:00N 37°33' W 122°39'611.9
2017-Jun-20 01:31N 37°27' W 122°40'611.7
2017-Jun-20 01:01N 37°22' W 122°40'611.9
2017-Jun-20 00:30N 37°16' W 122°39'713.3
2017-Jun-20 00:01N 37°09' W 122°38'714.7
2017-Jun-19 23:31N 37°02' W 122°35'714.9
2017-Jun-19 23:00N 36°55' W 122°31'714.8
2017-Jun-19 22:31N 36°49' W 122°27'815.1
2017-Jun-19 22:01N 36°42' W 122°24'815.0
2017-Jun-19 21:31N 36°35' W 122°21'714.9
2017-Jun-19 21:00N 36°28' W 122°17'715.0
2017-Jun-19 20:31N 36°21' W 122°13'815.5
2017-Jun-19 20:00N 36°14' W 122°09'815.9
2017-Jun-19 19:31N 36°07' W 122°04'815.0
2017-Jun-19 19:00N 36°00' W 121°60'815.4
2017-Jun-19 18:30N 35°54' W 121°55'714.9
2017-Jun-19 18:00N 35°47' W 121°50'714.6
2017-Jun-19 17:31N 35°41' W 121°46'714.7
2017-Jun-19 17:00N 35°35' W 121°41'714.9
2017-Jun-19 16:31N 35°28' W 121°37'714.8
2017-Jun-19 16:00N 35°22' W 121°32'714.9
2017-Jun-19 15:31N 35°15' W 121°28'714.8
2017-Jun-19 15:01N 35°09' W 121°23'815.1
2017-Jun-19 14:31N 35°02' W 121°18'1716.7
2017-Jun-19 13:30N 34°47' W 121°10'816.9
2017-Jun-19 13:01N 34°40' W 121°05'917.2
2017-Jun-19 12:30N 34°33' W 120°59'917.3
2017-Jun-19 11:59N 34°26' W 120°52'917.0
2017-Jun-19 11:29N 34°24' W 120°42'817.1
2017-Jun-19 11:00N 34°22' W 120°32'917.6
2017-Jun-19 10:30N 34°20' W 120°22'917.6
2017-Jun-19 10:00N 34°17' W 120°11'817.4
2017-Jun-19 09:30N 34°15' W 120°01'816.9
2017-Jun-19 09:01N 34°12' W 119°52'917.3
2017-Jun-19 08:31N 34°10' W 119°42'917.3
2017-Jun-19 08:00N 34°08' W 119°32'917.0
2017-Jun-19 07:30N 34°05' W 119°22'816.4
2017-Jun-19 07:01N 34°03' W 119°12'816.6
2017-Jun-19 06:31N 33°59' W 119°04'612.2
2017-Jun-19 06:00N 33°56' W 118°57'611.7
2017-Jun-19 05:30N 33°53' W 118°51'611.7
2017-Jun-19 05:01N 33°50' W 118°45'611.6
2017-Jun-19 04:30N 33°47' W 118°39'611.7
2017-Jun-19 04:00N 33°44' W 118°33'611.5
2017-Jun-19 03:30N 33°41' W 118°27'611.5
2017-Jun-19 03:00N 33°38' W 118°21'510.0
2017-Jun-19 02:31N 33°40' W 118°15'3 5.9
2017-Jun-19 02:01N 33°43' W 118°16'1 1.5
2017-Jun-19 01:29N 33°44' W 118°15'0 0.4
2017-Jun-19 00:59N 33°44' W 118°15'0 0.0
2017-Jun-19 00:29N 33°44' W 118°15'0 0.0
2017-Jun-18 23:59N 33°44' W 118°15'0 0.0
2017-Jun-18 23:29N 33°44' W 118°15'0 0.0
2017-Jun-18 22:59N 33°44' W 118°15'0 0.0
2017-Jun-18 22:29N 33°44' W 118°15'0 0.0
2017-Jun-18 21:59N 33°44' W 118°15'0 0.0
2017-Jun-18 21:29N 33°44' W 118°15'0 0.0
2017-Jun-18 20:59N 33°44' W 118°15'0 0.0
2017-Jun-18 20:29N 33°44' W 118°15'0 0.0
2017-Jun-18 19:59N 33°44' W 118°15'0 0.0
2017-Jun-18 19:29N 33°44' W 118°15'0 0.0
2017-Jun-18 18:59N 33°44' W 118°15'0 0.0
2017-Jun-18 18:29N 33°44' W 118°15'0 0.0
2017-Jun-18 17:59N 33°44' W 118°15'0 0.0
2017-Jun-18 17:26N 33°44' W 118°15'0 0.0
2017-Jun-18 16:59N 33°44' W 118°15'0 0.0
2017-Jun-18 16:29N 33°44' W 118°15'0 0.0
2017-Jun-18 15:59N 33°44' W 118°15'0 0.0
2017-Jun-18 15:29N 33°44' W 118°15'0 0.0
2017-Jun-18 14:41N 33°44' W 118°15'0 0.0
2017-Jun-18 14:29N 33°44' W 118°15'0 0.0
2017-Jun-18 13:17N 33°44' W 118°15'0 0.0
2017-Jun-18 12:59N 33°44' W 118°15'0 0.0
2017-Jun-18 12:29N 33°44' W 118°15'0 0.0
2017-Jun-18 11:59N 33°44' W 118°15'0 0.0
2017-Jun-18 11:17N 33°44' W 118°15'0 0.0
2017-Jun-18 10:59N 33°44' W 118°15'0 0.0
2017-Jun-18 10:29N 33°44' W 118°15'0 0.0
2017-Jun-18 09:56N 33°44' W 118°15'0 0.0
2017-Jun-18 09:29N 33°44' W 118°15'0 0.0
2017-Jun-18 08:56N 33°44' W 118°15'0 0.0
2017-Jun-18 08:29N 33°44' W 118°15'0 0.0
2017-Jun-18 07:59N 33°44' W 118°15'0 0.0
2017-Jun-18 07:29N 33°44' W 118°15'0 0.0
2017-Jun-18 06:59N 33°44' W 118°15'0 0.0
2017-Jun-18 06:26N 33°44' W 118°15'0 0.0
2017-Jun-18 05:59N 33°44' W 118°15'0 0.0
2017-Jun-18 05:29N 33°44' W 118°15'0 0.0
2017-Jun-18 04:56N 33°44' W 118°15'0 0.0
2017-Jun-18 04:29N 33°44' W 118°15'0 0.0
2017-Jun-18 03:59N 33°44' W 118°15'0 0.0
2017-Jun-18 03:29N 33°44' W 118°15'0 0.0
2017-Jun-18 02:59N 33°44' W 118°15'0 0.0
2017-Jun-18 02:29N 33°44' W 118°15'0 0.0
2017-Jun-18 01:59N 33°44' W 118°15'0 0.0
2017-Jun-18 01:29N 33°44' W 118°15'0 0.0
2017-Jun-18 00:59N 33°44' W 118°15'0 0.0
2017-Jun-18 00:29N 33°44' W 118°15'0 0.0
2017-Jun-17 23:59N 33°44' W 118°15'0 0.0
2017-Jun-17 23:29N 33°44' W 118°15'0 0.0
2017-Jun-17 22:59N 33°44' W 118°15'0 0.0
2017-Jun-17 22:26N 33°44' W 118°15'0 0.0
2017-Jun-17 21:59N 33°44' W 118°15'0 0.0
2017-Jun-17 21:29N 33°44' W 118°15'0 0.0
2017-Jun-17 20:59N 33°44' W 118°15'0 0.0
2017-Jun-17 20:29N 33°44' W 118°15'0 0.0
2017-Jun-17 19:59N 33°44' W 118°15'0 0.0
2017-Jun-17 19:29N 33°44' W 118°15'0 0.0
2017-Jun-17 18:56N 33°44' W 118°15'0 0.0
2017-Jun-17 18:29N 33°44' W 118°15'0 0.0
2017-Jun-17 17:56N 33°44' W 118°15'0 0.0
2017-Jun-17 17:29N 33°44' W 118°15'0 0.0
2017-Jun-17 16:59N 33°44' W 118°15'0 0.0
2017-Jun-17 16:29N 33°44' W 118°15'0 0.0
2017-Jun-17 15:59N 33°44' W 118°15'0 0.0
2017-Jun-17 15:29N 33°44' W 118°15'0 0.0
2017-Jun-17 14:59N 33°44' W 118°15'0 0.0
2017-Jun-17 14:29N 33°44' W 118°15'0 0.0
2017-Jun-17 13:26N 33°44' W 118°15'0 0.0
2017-Jun-17 12:59N 33°44' W 118°15'0 0.0
2017-Jun-17 12:29N 33°44' W 118°15'0 0.0
2017-Jun-17 11:59N 33°44' W 118°15'0 0.0
2017-Jun-17 11:29N 33°44' W 118°15'0 0.0
2017-Jun-17 10:59N 33°44' W 118°15'0 0.0
2017-Jun-17 10:29N 33°44' W 118°15'0 0.0
2017-Jun-17 09:59N 33°44' W 118°15'0 0.0
2017-Jun-17 09:29N 33°44' W 118°15'0 0.0
2017-Jun-17 08:59N 33°44' W 118°15'0 0.0
2017-Jun-17 08:29N 33°44' W 118°15'0 0.0
2017-Jun-17 07:59N 33°44' W 118°15'0 0.0
2017-Jun-17 07:29N 33°44' W 118°15'0 0.0
2017-Jun-17 06:59N 33°44' W 118°15'0 0.0
2017-Jun-17 06:29N 33°44' W 118°15'0 0.0
2017-Jun-17 05:47N 33°44' W 118°15'0 0.0
2017-Jun-17 05:29N 33°44' W 118°15'0 0.0
2017-Jun-17 04:59N 33°44' W 118°15'0 0.0
2017-Jun-17 04:17N 33°44' W 118°15'0 0.0
2017-Jun-17 03:53N 33°44' W 118°15'0 0.0
2017-Jun-17 03:23N 33°44' W 118°15'0 0.0
2017-Jun-17 02:47N 33°44' W 118°15'0 0.0
2017-Jun-17 02:29N 33°44' W 118°15'0 0.0
2017-Jun-17 01:59N 33°44' W 118°15'0 0.0
2017-Jun-17 01:29N 33°44' W 118°15'0 0.0
2017-Jun-17 00:59N 33°44' W 118°15'0 0.0
2017-Jun-17 00:23N 33°44' W 118°15'0 0.0
2017-Jun-16 23:56N 33°44' W 118°15'0 0.0
2017-Jun-16 23:29N 33°44' W 118°15'0 0.0
2017-Jun-16 22:59N 33°44' W 118°15'0 0.0
2017-Jun-16 22:29N 33°44' W 118°15'0 0.0
2017-Jun-16 21:50N 33°44' W 118°15'0 0.0
2017-Jun-16 21:26N 33°44' W 118°15'0 0.0
2017-Jun-16 20:59N 33°44' W 118°15'0 0.0
2017-Jun-16 20:29N 33°44' W 118°15'0 0.0
2017-Jun-16 19:59N 33°44' W 118°15'0 0.0
2017-Jun-16 19:29N 33°44' W 118°15'0 0.0
2017-Jun-16 18:59N 33°44' W 118°15'0 0.0
2017-Jun-16 18:29N 33°44' W 118°15'0 0.0
2017-Jun-16 17:59N 33°44' W 118°15'0 0.0
2017-Jun-16 17:29N 33°44' W 118°15'0 0.0
2017-Jun-16 16:59N 33°44' W 118°15'0 0.0
2017-Jun-16 16:29N 33°44' W 118°15'0 0.0
2017-Jun-16 15:59N 33°44' W 118°15'0 0.0
2017-Jun-16 15:29N 33°44' W 118°15'0 0.0
2017-Jun-16 14:59N 33°44' W 118°15'0 0.0
2017-Jun-16 14:29N 33°44' W 118°15'0 0.0
2017-Jun-16 13:29N 33°44' W 118°15'0 0.0
2017-Jun-16 12:59N 33°44' W 118°15'0 0.0
2017-Jun-16 12:29N 33°44' W 118°15'0 0.0
2017-Jun-16 11:59N 33°44' W 118°15'0 0.0
2017-Jun-16 11:29N 33°44' W 118°15'0 0.0
2017-Jun-16 10:59N 33°44' W 118°15'0 0.0
2017-Jun-16 10:29N 33°44' W 118°15'0 0.0
2017-Jun-16 09:56N 33°44' W 118°15'0 0.0
2017-Jun-16 09:29N 33°44' W 118°15'0 0.0
2017-Jun-16 08:59N 33°44' W 118°15'0 0.0
2017-Jun-16 08:29N 33°44' W 118°15'0 0.0
2017-Jun-16 07:59N 33°44' W 118°15'0 0.0
2017-Jun-16 07:29N 33°44' W 118°15'0 0.0
2017-Jun-16 06:59N 33°44' W 118°15'0 0.0
2017-Jun-16 06:23N 33°44' W 118°15'0 0.0
2017-Jun-16 05:59N 33°44' W 118°15'0 0.0
2017-Jun-16 05:29N 33°44' W 118°15'0 0.0
2017-Jun-16 04:59N 33°44' W 118°15'0 0.0
2017-Jun-16 04:29N 33°44' W 118°15'0 0.0
2017-Jun-16 03:59N 33°44' W 118°15'0 0.0
2017-Jun-16 03:26N 33°44' W 118°15'0 0.0
2017-Jun-16 02:59N 33°44' W 118°15'0 0.0
2017-Jun-16 02:29N 33°44' W 118°15'0 0.0
2017-Jun-16 01:59N 33°44' W 118°15'0 0.0
2017-Jun-16 01:29N 33°44' W 118°15'0 0.0
2017-Jun-16 00:59N 33°44' W 118°15'0 0.0
2017-Jun-16 00:29N 33°44' W 118°15'0 0.0
2017-Jun-15 23:59N 33°44' W 118°15'0 0.0
2017-Jun-15 23:29N 33°44' W 118°15'0 0.0
2017-Jun-15 22:59N 33°44' W 118°15'0 0.0
2017-Jun-15 22:30N 33°44' W 118°15'1 2.1
2017-Jun-15 22:01N 33°43' W 118°16'4 8.9
2017-Jun-15 21:30N 33°39' W 118°13'4 7.6
2017-Jun-15 21:00N 33°36' W 118°16'4 8.5
2017-Jun-15 20:30N 33°37' W 118°21'510.4
2017-Jun-15 20:00N 33°39' W 118°27'510.3
2017-Jun-15 19:30N 33°42' W 118°32'611.5
2017-Jun-15 19:00N 33°44' W 118°38'611.5
2017-Jun-15 18:30N 33°47' W 118°44'611.4
2017-Jun-15 18:00N 33°50' W 118°50'611.2
2017-Jun-15 17:30N 33°53' W 118°56'510.9
2017-Jun-15 17:00N 33°56' W 119°02'713.8
2017-Jun-15 16:30N 33°59' W 119°09'815.8
2017-Jun-15 16:00N 34°03' W 119°17'917.0
2017-Jun-15 15:30N 34°05' W 119°27'816.6
2017-Jun-15 15:00N 34°07' W 119°37'1717.1
2017-Jun-15 14:00N 34°12' W 119°57'816.9
2017-Jun-15 13:30N 34°14' W 120°07'916.8
2017-Jun-15 12:58N 34°16' W 120°17'816.4
2017-Jun-15 12:30N 34°18' W 120°26'816.5
2017-Jun-15 12:00N 34°21' W 120°36'816.4
2017-Jun-15 11:30N 34°23' W 120°45'816.1
2017-Jun-15 11:00N 34°24' W 120°55'816.3
2017-Jun-15 10:30N 34°25' W 121°05'816.5
2017-Jun-15 10:00N 34°24' W 121°15'815.8
2017-Jun-15 09:30N 34°24' W 121°25'815.5
2017-Jun-15 09:00N 34°24' W 121°34'815.9
2017-Jun-15 08:30N 34°24' W 121°43'815.6
2017-Jun-15 07:59N 34°24' W 121°53'815.5
2017-Jun-15 07:28N 34°24' W 122°03'815.8
2017-Jun-15 06:57N 34°24' W 122°13'715.8
2017-Jun-15 06:30N 34°24' W 122°21'916.2
2017-Jun-15 05:57N 34°24' W 122°32'716.2
2017-Jun-15 05:30N 34°24' W 122°41'816.5
2017-Jun-15 05:00N 34°24' W 122°51'816.1
2017-Jun-15 04:30N 34°24' W 123°01'815.7
2017-Jun-15 04:00N 34°24' W 123°10'816.1
2017-Jun-15 03:30N 34°24' W 123°20'714.4
2017-Jun-15 03:01N 34°24' W 123°29'917.3
2017-Jun-15 02:31N 34°24' W 123°39'816.2
2017-Jun-15 02:00N 34°25' W 123°49'4 8.2
2017-Jun-15 01:30N 34°24' W 123°54'816.0
2017-Jun-15 01:00N 34°24' W 124°04'917.8
2017-Jun-15 00:30N 34°24' W 124°14'917.7
2017-Jun-15 00:00N 34°25' W 124°25'918.0
2017-Jun-14 23:30N 34°26' W 124°36'1018.0
2017-Jun-14 22:57N 34°27' W 124°48'817.8
2017-Jun-14 22:30N 34°28' W 124°58'917.5
2017-Jun-14 22:00N 34°29' W 125°08'917.7
2017-Jun-14 21:30N 34°30' W 125°19'917.5
2017-Jun-14 21:00N 34°32' W 125°29'  
Track history (hours):
 
Tides and Currents Weather Stations Pressure Air Temp Water Temp Dewpoint Dewpoint Depression Visibility Wind Speed Wind Dir Waves Ship Positions

Gerd Maersk

Last reported at 2017-Jun-23 22:36 UTC. Time now 2017-Jun-26 19:17 UTC.
Position N 40°52' W 133°11'.

Length 367 m; draft 12.9 m.

Type: Ship (hazmat cat A). MMSI: 220415000.

Date/timePositionNaut miles runAvg speedWind from/ knotsBaromVisibWave heightAir tempDewpointWater temp
2017-Jun-23 22:36N 40°52' W 133°11'318.4
2017-Jun-23 22:26N 40°50' W 133°08'818.3
2017-Jun-23 22:01N 40°46' W 132°59'918.2
2017-Jun-23 21:30N 40°41' W 132°49'918.1
2017-Jun-23 20:59N 40°36' W 132°38'917.9
2017-Jun-23 20:29N 40°31' W 132°28'917.9
2017-Jun-23 20:00N 40°27' W 132°19'1118.2
2017-Jun-23 19:24N 40°21' W 132°07'818.0
2017-Jun-23 18:59N 40°17' W 131°58'1017.9
2017-Jun-23 18:25N 40°12' W 131°47'718.2
2017-Jun-23 18:00N 40°08' W 131°39'918.0
2017-Jun-23 17:31N 40°03' W 131°29'918.1
2017-Jun-23 17:00N 39°58' W 131°18'918.2
2017-Jun-23 16:30N 39°53' W 131°09'918.2
2017-Jun-23 16:01N 39°48' W 130°59'1718.1
2017-Jun-23 15:05N 39°39' W 130°41'7817.7
2017-Jun-23 10:41N 38°56' W 129°17'517.4
2017-Jun-23 10:25N 38°54' W 129°12'717.3
2017-Jun-23 10:00N 38°50' W 129°04'917.0
2017-Jun-23 09:30N 38°45' W 128°55'5017.2
2017-Jun-23 06:34N 38°16' W 128°02'116.6
2017-Jun-23 06:30N 38°15' W 128°01'1310.6
2017-Jun-23 05:18N 38°10' W 127°47'711.0
2017-Jun-23 04:42N 38°09' W 127°38'311.0
2017-Jun-23 04:27N 38°09' W 127°35'1010.9
2017-Jun-23 03:33N 38°10' W 127°22'110.7
2017-Jun-23 03:30N 38°10' W 127°22'610.7
2017-Jun-23 02:56N 38°10' W 127°14'510.6
2017-Jun-23 02:30N 38°10' W 127°08'510.7
2017-Jun-23 01:59N 38°10' W 127°01'510.5
2017-Jun-23 01:30N 38°10' W 126°54'510.6
2017-Jun-23 01:00N 38°10' W 126°48'510.8
2017-Jun-23 00:31N 38°10' W 126°41'610.9
2017-Jun-23 00:00N 38°10' W 126°34'710.9
2017-Jun-22 23:22N 38°10' W 126°25'1511.2
2017-Jun-22 22:00N 38°10' W 126°06'611.3
2017-Jun-22 21:30N 38°10' W 125°59'5611.0
2017-Jun-22 16:24N 38°09' W 124°47'410.7
2017-Jun-22 16:00N 38°09' W 124°42'510.4
2017-Jun-22 15:30N 38°10' W 124°35'510.3
2017-Jun-22 15:00N 38°10' W 124°28'1210.3
2017-Jun-22 13:52N 38°09' W 124°14'410.1
2017-Jun-22 13:27N 38°09' W 124°08'510.7
2017-Jun-22 12:58N 38°10' W 124°02'510.5
2017-Jun-22 12:30N 38°10' W 123°55'510.5
2017-Jun-22 12:00N 38°10' W 123°49'510.4
2017-Jun-22 11:30N 38°09' W 123°42'510.9
2017-Jun-22 11:00N 38°09' W 123°35'611.7
2017-Jun-22 10:30N 38°09' W 123°28'611.2
2017-Jun-22 10:00N 38°09' W 123°21'611.5
2017-Jun-22 09:30N 38°05' W 123°16'611.7
2017-Jun-22 09:00N 38°01' W 123°11'611.5
2017-Jun-22 08:30N 37°57' W 123°05'611.6
2017-Jun-22 08:00N 37°54' W 122°59'611.8
2017-Jun-22 07:30N 37°51' W 122°52'612.0
2017-Jun-22 07:00N 37°48' W 122°46'5 9.5
2017-Jun-22 06:31N 37°46' W 122°40'815.2
2017-Jun-22 06:00N 37°48' W 122°31'611.9
2017-Jun-22 05:31N 37°49' W 122°24'4 7.5
2017-Jun-22 04:59N 37°48' W 122°19'0 0.1
2017-Jun-22 04:29N 37°48' W 122°19'0 0.0
2017-Jun-22 03:59N 37°48' W 122°19'0 0.0
2017-Jun-22 03:26N 37°48' W 122°19'0 0.0
2017-Jun-22 02:59N 37°48' W 122°19'0 0.0
2017-Jun-22 02:29N 37°48' W 122°19'0 0.0
2017-Jun-22 01:56N 37°48' W 122°19'0 0.0
2017-Jun-22 01:29N 37°48' W 122°19'0 0.0
2017-Jun-22 00:59N 37°48' W 122°19'0 0.0
2017-Jun-22 00:29N 37°48' W 122°19'0 0.0
2017-Jun-21 23:59N 37°48' W 122°19'0 0.0
2017-Jun-21 23:29N 37°48' W 122°19'0 0.0
2017-Jun-21 22:56N 37°48' W 122°19'0 0.0
2017-Jun-21 22:29N 37°48' W 122°19'0 0.0
2017-Jun-21 21:59N 37°48' W 122°19'0 0.0
2017-Jun-21 21:29N 37°48' W 122°19'0 0.0
2017-Jun-21 20:59N 37°48' W 122°19'0 0.0
2017-Jun-21 20:29N 37°48' W 122°19'0 0.0
2017-Jun-21 19:59N 37°48' W 122°19'0 0.0
2017-Jun-21 19:29N 37°48' W 122°19'0 0.0
2017-Jun-21 18:59N 37°48' W 122°19'0 0.0
2017-Jun-21 18:29N 37°48' W 122°19'0 0.0
2017-Jun-21 17:59N 37°48' W 122°19'0 0.0
2017-Jun-21 17:29N 37°48' W 122°19'0 0.0
2017-Jun-21 16:59N 37°48' W 122°19'0 0.0
2017-Jun-21 16:29N 37°48' W 122°19'0 0.0
2017-Jun-21 15:59N 37°48' W 122°19'0 0.0
2017-Jun-21 15:26N 37°48' W 122°19'0 0.0
2017-Jun-21 14:59N 37°48' W 122°19'0 0.0
2017-Jun-21 14:29N 37°48' W 122°19'0 0.0
2017-Jun-21 13:29N 37°48' W 122°19'0 0.0
2017-Jun-21 12:59N 37°48' W 122°19'0 0.0
2017-Jun-21 12:29N 37°48' W 122°19'0 0.0
2017-Jun-21 11:59N 37°48' W 122°19'0 0.0
2017-Jun-21 11:29N 37°48' W 122°19'0 0.0
2017-Jun-21 10:59N 37°48' W 122°19'0 0.0
2017-Jun-21 10:29N 37°48' W 122°19'0 0.0
2017-Jun-21 09:59N 37°48' W 122°19'0 0.0
2017-Jun-21 09:29N 37°48' W 122°19'0 0.0
2017-Jun-21 08:59N 37°48' W 122°19'0 0.0
2017-Jun-21 08:29N 37°48' W 122°19'0 0.0
2017-Jun-21 07:59N 37°48' W 122°19'0 0.0
2017-Jun-21 07:29N 37°48' W 122°19'0 0.0
2017-Jun-21 06:59N 37°48' W 122°19'0 0.0
2017-Jun-21 06:29N 37°48' W 122°19'0 0.0
2017-Jun-21 05:59N 37°48' W 122°19'0 0.0
2017-Jun-21 05:29N 37°48' W 122°19'0 0.0
2017-Jun-21 04:59N 37°48' W 122°19'0 0.0
2017-Jun-21 04:29N 37°48' W 122°19'0 0.0
2017-Jun-21 03:56N 37°48' W 122°19'0 0.0
2017-Jun-21 03:29N 37°48' W 122°19'0 0.0
2017-Jun-21 02:59N 37°48' W 122°19'0 0.0
2017-Jun-21 02:29N 37°48' W 122°19'0 0.0
2017-Jun-21 01:59N 37°48' W 122°19'0 0.0
2017-Jun-21 01:29N 37°48' W 122°19'0 0.0
2017-Jun-21 00:59N 37°48' W 122°19'0 0.0
2017-Jun-21 00:29N 37°48' W 122°19'0 0.0
2017-Jun-20 23:59N 37°48' W 122°19'0 0.0
2017-Jun-20 23:29N 37°48' W 122°19'0 0.0
2017-Jun-20 22:59N 37°48' W 122°19'0 0.0
2017-Jun-20 22:29N 37°48' W 122°19'0 0.0
2017-Jun-20 21:56N 37°48' W 122°19'0 0.0
2017-Jun-20 21:29N 37°48' W 122°19'0 0.0
2017-Jun-20 20:59N 37°48' W 122°19'0 0.0
2017-Jun-20 20:29N 37°48' W 122°19'0 0.0
2017-Jun-20 19:59N 37°48' W 122°19'0 0.0
2017-Jun-20 19:29N 37°48' W 122°19'0 0.0
2017-Jun-20 18:59N 37°48' W 122°19'0 0.0
2017-Jun-20 18:29N 37°48' W 122°19'0 0.0
2017-Jun-20 17:59N 37°48' W 122°19'0 0.0
2017-Jun-20 17:29N 37°48' W 122°19'0 0.0
2017-Jun-20 16:59N 37°48' W 122°19'0 0.0
2017-Jun-20 16:29N 37°48' W 122°19'0 0.0
2017-Jun-20 15:59N 37°48' W 122°19'0 0.0
2017-Jun-20 15:29N 37°48' W 122°19'0 0.0
2017-Jun-20 14:56N 37°48' W 122°19'0 0.0
2017-Jun-20 13:59N 37°48' W 122°19'0 0.0
2017-Jun-20 13:29N 37°48' W 122°19'0 0.0
2017-Jun-20 12:59N 37°48' W 122°19'0 0.0
2017-Jun-20 12:29N 37°48' W 122°19'0 0.0
2017-Jun-20 11:59N 37°48' W 122°19'0 0.0
2017-Jun-20 11:29N 37°48' W 122°19'0 0.0
2017-Jun-20 10:59N 37°48' W 122°19'0 0.0
2017-Jun-20 10:29N 37°48' W 122°19'0 0.0
2017-Jun-20 09:59N 37°48' W 122°19'0 0.0
2017-Jun-20 09:29N 37°48' W 122°19'0 0.0
2017-Jun-20 08:59N 37°48' W 122°19'0 0.0
2017-Jun-20 08:29N 37°48' W 122°19'0 0.0
2017-Jun-20 07:59N 37°48' W 122°19'0 0.0
2017-Jun-20 07:29N 37°48' W 122°19'0 0.0
2017-Jun-20 06:59N 37°48' W 122°19'0 0.0
2017-Jun-20 06:29N 37°48' W 122°19'0 0.0
2017-Jun-20 06:00N 37°48' W 122°19'1 1.1
2017-Jun-20 05:30N 37°48' W 122°18'1 1.1
2017-Jun-20 05:01N 37°48' W 122°18'2 3.5
2017-Jun-20 04:31N 37°48' W 122°20'4 8.8
2017-Jun-20 04:00N 37°49' W 122°25'713.5
2017-Jun-20 03:31N 37°47' W 122°33'713.3
2017-Jun-20 03:00N 37°44' W 122°41'5 9.4
2017-Jun-20 02:31N 37°39' W 122°40'611.9
2017-Jun-20 02:00N 37°33' W 122°39'611.9
2017-Jun-20 01:31N 37°27' W 122°40'611.7
2017-Jun-20 01:01N 37°22' W 122°40'611.9
2017-Jun-20 00:30N 37°16' W 122°39'713.3
2017-Jun-20 00:01N 37°09' W 122°38'714.7
2017-Jun-19 23:31N 37°02' W 122°35'714.9
2017-Jun-19 23:00N 36°55' W 122°31'714.8
2017-Jun-19 22:31N 36°49' W 122°27'815.1
2017-Jun-19 22:01N 36°42' W 122°24'815.0
2017-Jun-19 21:31N 36°35' W 122°21'714.9
2017-Jun-19 21:00N 36°28' W 122°17'715.0
2017-Jun-19 20:31N 36°21' W 122°13'815.5
2017-Jun-19 20:00N 36°14' W 122°09'815.9
2017-Jun-19 19:31N 36°07' W 122°04'815.0
2017-Jun-19 19:00N 36°00' W 121°60'815.4
2017-Jun-19 18:30N 35°54' W 121°55'714.9
2017-Jun-19 18:00N 35°47' W 121°50'714.6
2017-Jun-19 17:31N 35°41' W 121°46'714.7
2017-Jun-19 17:00N 35°35' W 121°41'714.9
2017-Jun-19 16:31N 35°28' W 121°37'714.8
2017-Jun-19 16:00N 35°22' W 121°32'714.9
2017-Jun-19 15:31N 35°15' W 121°28'714.8
2017-Jun-19 15:01N 35°09' W 121°23'815.1
2017-Jun-19 14:31N 35°02' W 121°18'1716.7
2017-Jun-19 13:30N 34°47' W 121°10'816.9
2017-Jun-19 13:01N 34°40' W 121°05'917.2
2017-Jun-19 12:30N 34°33' W 120°59'917.3
2017-Jun-19 11:59N 34°26' W 120°52'917.0
2017-Jun-19 11:29N 34°24' W 120°42'817.1
2017-Jun-19 11:00N 34°22' W 120°32'917.6
2017-Jun-19 10:30N 34°20' W 120°22'917.6
2017-Jun-19 10:00N 34°17' W 120°11'817.4
2017-Jun-19 09:30N 34°15' W 120°01'816.9
2017-Jun-19 09:01N 34°12' W 119°52'917.3
2017-Jun-19 08:31N 34°10' W 119°42'917.3
2017-Jun-19 08:00N 34°08' W 119°32'917.0
2017-Jun-19 07:30N 34°05' W 119°22'816.4
2017-Jun-19 07:01N 34°03' W 119°12'816.6
2017-Jun-19 06:31N 33°59' W 119°04'612.2
2017-Jun-19 06:00N 33°56' W 118°57'611.7
2017-Jun-19 05:30N 33°53' W 118°51'611.7
2017-Jun-19 05:01N 33°50' W 118°45'611.6
2017-Jun-19 04:30N 33°47' W 118°39'611.7
2017-Jun-19 04:00N 33°44' W 118°33'611.5
2017-Jun-19 03:30N 33°41' W 118°27'611.5
2017-Jun-19 03:00N 33°38' W 118°21'510.0
2017-Jun-19 02:31N 33°40' W 118°15'3 5.9
2017-Jun-19 02:01N 33°43' W 118°16'1 1.5
2017-Jun-19 01:29N 33°44' W 118°15'0 0.4
2017-Jun-19 00:59N 33°44' W 118°15'0 0.0
2017-Jun-19 00:29N 33°44' W 118°15'0 0.0
2017-Jun-18 23:59N 33°44' W 118°15'0 0.0
2017-Jun-18 23:29N 33°44' W 118°15'0 0.0
2017-Jun-18 22:59N 33°44' W 118°15'0 0.0
2017-Jun-18 22:29N 33°44' W 118°15'0 0.0
2017-Jun-18 21:59N 33°44' W 118°15'0 0.0
2017-Jun-18 21:29N 33°44' W 118°15'0 0.0
2017-Jun-18 20:59N 33°44' W 118°15'0 0.0
2017-Jun-18 20:29N 33°44' W 118°15'0 0.0
2017-Jun-18 19:59N 33°44' W 118°15'0 0.0
2017-Jun-18 19:29N 33°44' W 118°15'0 0.0
2017-Jun-18 18:59N 33°44' W 118°15'0 0.0
2017-Jun-18 18:29N 33°44' W 118°15'0 0.0
2017-Jun-18 17:59N 33°44' W 118°15'0 0.0
2017-Jun-18 17:26N 33°44' W 118°15'0 0.0
2017-Jun-18 16:59N 33°44' W 118°15'0 0.0
2017-Jun-18 16:29N 33°44' W 118°15'0 0.0
2017-Jun-18 15:59N 33°44' W 118°15'0 0.0
2017-Jun-18 15:29N 33°44' W 118°15'0 0.0
2017-Jun-18 14:41N 33°44' W 118°15'0 0.0
2017-Jun-18 14:29N 33°44' W 118°15'0 0.0
2017-Jun-18 13:17N 33°44' W 118°15'0 0.0
2017-Jun-18 12:59N 33°44' W 118°15'0 0.0
2017-Jun-18 12:29N 33°44' W 118°15'0 0.0
2017-Jun-18 11:59N 33°44' W 118°15'0 0.0
2017-Jun-18 11:17N 33°44' W 118°15'0 0.0
2017-Jun-18 10:59N 33°44' W 118°15'0 0.0
2017-Jun-18 10:29N 33°44' W 118°15'0 0.0
2017-Jun-18 09:56N 33°44' W 118°15'0 0.0
2017-Jun-18 09:29N 33°44' W 118°15'0 0.0
2017-Jun-18 08:56N 33°44' W 118°15'0 0.0
2017-Jun-18 08:29N 33°44' W 118°15'0 0.0
2017-Jun-18 07:59N 33°44' W 118°15'0 0.0
2017-Jun-18 07:29N 33°44' W 118°15'0 0.0
2017-Jun-18 06:59N 33°44' W 118°15'0 0.0
2017-Jun-18 06:26N 33°44' W 118°15'0 0.0
2017-Jun-18 05:59N 33°44' W 118°15'0 0.0
2017-Jun-18 05:29N 33°44' W 118°15'0 0.0
2017-Jun-18 04:56N 33°44' W 118°15'0 0.0
2017-Jun-18 04:29N 33°44' W 118°15'0 0.0
2017-Jun-18 03:59N 33°44' W 118°15'0 0.0
2017-Jun-18 03:29N 33°44' W 118°15'0 0.0
2017-Jun-18 02:59N 33°44' W 118°15'0 0.0
2017-Jun-18 02:29N 33°44' W 118°15'0 0.0
2017-Jun-18 01:59N 33°44' W 118°15'0 0.0
2017-Jun-18 01:29N 33°44' W 118°15'0 0.0
2017-Jun-18 00:59N 33°44' W 118°15'0 0.0
2017-Jun-18 00:29N 33°44' W 118°15'0 0.0
2017-Jun-17 23:59N 33°44' W 118°15'0 0.0
2017-Jun-17 23:29N 33°44' W 118°15'0 0.0
2017-Jun-17 22:59N 33°44' W 118°15'0 0.0
2017-Jun-17 22:26N 33°44' W 118°15'0 0.0
2017-Jun-17 21:59N 33°44' W 118°15'0 0.0
2017-Jun-17 21:29N 33°44' W 118°15'0 0.0
2017-Jun-17 20:59N 33°44' W 118°15'0 0.0
2017-Jun-17 20:29N 33°44' W 118°15'0 0.0
2017-Jun-17 19:59N 33°44' W 118°15'0 0.0
2017-Jun-17 19:29N 33°44' W 118°15'0 0.0
2017-Jun-17 18:56N 33°44' W 118°15'0 0.0
2017-Jun-17 18:29N 33°44' W 118°15'0 0.0
2017-Jun-17 17:56N 33°44' W 118°15'0 0.0
2017-Jun-17 17:29N 33°44' W 118°15'0 0.0
2017-Jun-17 16:59N 33°44' W 118°15'0 0.0
2017-Jun-17 16:29N 33°44' W 118°15'0 0.0
2017-Jun-17 15:59N 33°44' W 118°15'0 0.0
2017-Jun-17 15:29N 33°44' W 118°15'0 0.0
2017-Jun-17 14:59N 33°44' W 118°15'0 0.0
2017-Jun-17 14:29N 33°44' W 118°15'0 0.0
2017-Jun-17 13:26N 33°44' W 118°15'0 0.0
2017-Jun-17 12:59N 33°44' W 118°15'0 0.0
2017-Jun-17 12:29N 33°44' W 118°15'0 0.0
2017-Jun-17 11:59N 33°44' W 118°15'0 0.0
2017-Jun-17 11:29N 33°44' W 118°15'0 0.0
2017-Jun-17 10:59N 33°44' W 118°15'0 0.0
2017-Jun-17 10:29N 33°44' W 118°15'0 0.0
2017-Jun-17 09:59N 33°44' W 118°15'0 0.0
2017-Jun-17 09:29N 33°44' W 118°15'0 0.0
2017-Jun-17 08:59N 33°44' W 118°15'0 0.0
2017-Jun-17 08:29N 33°44' W 118°15'0 0.0
2017-Jun-17 07:59N 33°44' W 118°15'0 0.0
2017-Jun-17 07:29N 33°44' W 118°15'0 0.0
2017-Jun-17 06:59N 33°44' W 118°15'0 0.0
2017-Jun-17 06:29N 33°44' W 118°15'0 0.0
2017-Jun-17 05:47N 33°44' W 118°15'0 0.0
2017-Jun-17 05:29N 33°44' W 118°15'0 0.0
2017-Jun-17 04:59N 33°44' W 118°15'0 0.0
2017-Jun-17 04:17N 33°44' W 118°15'0 0.0
2017-Jun-17 03:53N 33°44' W 118°15'0 0.0
2017-Jun-17 03:23N 33°44' W 118°15'0 0.0
2017-Jun-17 02:47N 33°44' W 118°15'0 0.0
2017-Jun-17 02:29N 33°44' W 118°15'0 0.0
2017-Jun-17 01:59N 33°44' W 118°15'0 0.0
2017-Jun-17 01:29N 33°44' W 118°15'0 0.0
2017-Jun-17 00:59N 33°44' W 118°15'0 0.0
2017-Jun-17 00:23N 33°44' W 118°15'0 0.0
2017-Jun-16 23:56N 33°44' W 118°15'0 0.0
2017-Jun-16 23:29N 33°44' W 118°15'0 0.0
2017-Jun-16 22:59N 33°44' W 118°15'0 0.0
2017-Jun-16 22:29N 33°44' W 118°15'0 0.0
2017-Jun-16 21:50N 33°44' W 118°15'0 0.0
2017-Jun-16 21:26N 33°44' W 118°15'0 0.0
2017-Jun-16 20:59N 33°44' W 118°15'0 0.0
2017-Jun-16 20:29N 33°44' W 118°15'0 0.0
2017-Jun-16 19:59N 33°44' W 118°15'0 0.0
2017-Jun-16 19:29N 33°44' W 118°15'0 0.0
2017-Jun-16 18:59N 33°44' W 118°15'0 0.0
2017-Jun-16 18:29N 33°44' W 118°15'0 0.0
2017-Jun-16 17:59N 33°44' W 118°15'0 0.0
2017-Jun-16 17:29N 33°44' W 118°15'0 0.0
2017-Jun-16 16:59N 33°44' W 118°15'0 0.0
2017-Jun-16 16:29N 33°44' W 118°15'0 0.0
2017-Jun-16 15:59N 33°44' W 118°15'0 0.0
2017-Jun-16 15:29N 33°44' W 118°15'0 0.0
2017-Jun-16 14:59N 33°44' W 118°15'0 0.0
2017-Jun-16 14:29N 33°44' W 118°15'0 0.0
2017-Jun-16 13:29N 33°44' W 118°15'0 0.0
2017-Jun-16 12:59N 33°44' W 118°15'0 0.0
2017-Jun-16 12:29N 33°44' W 118°15'0 0.0
2017-Jun-16 11:59N 33°44' W 118°15'0 0.0
2017-Jun-16 11:29N 33°44' W 118°15'0 0.0
2017-Jun-16 10:59N 33°44' W 118°15'0 0.0
2017-Jun-16 10:29N 33°44' W 118°15'0 0.0
2017-Jun-16 09:56N 33°44' W 118°15'0 0.0
2017-Jun-16 09:29N 33°44' W 118°15'0 0.0
2017-Jun-16 08:59N 33°44' W 118°15'0 0.0
2017-Jun-16 08:29N 33°44' W 118°15'0 0.0
2017-Jun-16 07:59N 33°44' W 118°15'0 0.0
2017-Jun-16 07:29N 33°44' W 118°15'0 0.0
2017-Jun-16 06:59N 33°44' W 118°15'0 0.0
2017-Jun-16 06:23N 33°44' W 118°15'0 0.0
2017-Jun-16 05:59N 33°44' W 118°15'0 0.0
2017-Jun-16 05:29N 33°44' W 118°15'0 0.0
2017-Jun-16 04:59N 33°44' W 118°15'0 0.0
2017-Jun-16 04:29N 33°44' W 118°15'0 0.0
2017-Jun-16 03:59N 33°44' W 118°15'0 0.0
2017-Jun-16 03:26N 33°44' W 118°15'0 0.0
2017-Jun-16 02:59N 33°44' W 118°15'0 0.0
2017-Jun-16 02:29N 33°44' W 118°15'0 0.0
2017-Jun-16 01:59N 33°44' W 118°15'0 0.0
2017-Jun-16 01:29N 33°44' W 118°15'0 0.0
2017-Jun-16 00:59N 33°44' W 118°15'0 0.0
2017-Jun-16 00:29N 33°44' W 118°15'0 0.0
2017-Jun-15 23:59N 33°44' W 118°15'0 0.0
2017-Jun-15 23:29N 33°44' W 118°15'0 0.0
2017-Jun-15 22:59N 33°44' W 118°15'0 0.0
2017-Jun-15 22:30N 33°44' W 118°15'1 2.1
2017-Jun-15 22:01N 33°43' W 118°16'4 8.9
2017-Jun-15 21:30N 33°39' W 118°13'4 7.6
2017-Jun-15 21:00N 33°36' W 118°16'4 8.5
2017-Jun-15 20:30N 33°37' W 118°21'510.4
2017-Jun-15 20:00N 33°39' W 118°27'510.3
2017-Jun-15 19:30N 33°42' W 118°32'611.5
2017-Jun-15 19:00N 33°44' W 118°38'611.5
2017-Jun-15 18:30N 33°47' W 118°44'611.4
2017-Jun-15 18:00N 33°50' W 118°50'611.2
2017-Jun-15 17:30N 33°53' W 118°56'510.9
2017-Jun-15 17:00N 33°56' W 119°02'713.8
2017-Jun-15 16:30N 33°59' W 119°09'815.8
2017-Jun-15 16:00N 34°03' W 119°17'917.0
2017-Jun-15 15:30N 34°05' W 119°27'816.6
2017-Jun-15 15:00N 34°07' W 119°37'1717.1
2017-Jun-15 14:00N 34°12' W 119°57'816.9
2017-Jun-15 13:30N 34°14' W 120°07'916.8
2017-Jun-15 12:58N 34°16' W 120°17'816.4
2017-Jun-15 12:30N 34°18' W 120°26'816.5
2017-Jun-15 12:00N 34°21' W 120°36'816.4
2017-Jun-15 11:30N 34°23' W 120°45'816.1
2017-Jun-15 11:00N 34°24' W 120°55'816.3
2017-Jun-15 10:30N 34°25' W 121°05'816.5
2017-Jun-15 10:00N 34°24' W 121°15'815.8
2017-Jun-15 09:30N 34°24' W 121°25'815.5
2017-Jun-15 09:00N 34°24' W 121°34'815.9
2017-Jun-15 08:30N 34°24' W 121°43'815.6
2017-Jun-15 07:59N 34°24' W 121°53'815.5
2017-Jun-15 07:28N 34°24' W 122°03'815.8
2017-Jun-15 06:57N 34°24' W 122°13'715.8
2017-Jun-15 06:30N 34°24' W 122°21'916.2
2017-Jun-15 05:57N 34°24' W 122°32'716.2
2017-Jun-15 05:30N 34°24' W 122°41'816.5
2017-Jun-15 05:00N 34°24' W 122°51'816.1
2017-Jun-15 04:30N 34°24' W 123°01'815.7
2017-Jun-15 04:00N 34°24' W 123°10'816.1
2017-Jun-15 03:30N 34°24' W 123°20'714.4
2017-Jun-15 03:01N 34°24' W 123°29'917.3
2017-Jun-15 02:31N 34°24' W 123°39'816.2
2017-Jun-15 02:00N 34°25' W 123°49'4 8.2
2017-Jun-15 01:30N 34°24' W 123°54'816.0
2017-Jun-15 01:00N 34°24' W 124°04'917.8
2017-Jun-15 00:30N 34°24' W 124°14'917.7
2017-Jun-15 00:00N 34°25' W 124°25'918.0
2017-Jun-14 23:30N 34°26' W 124°36'1018.0
2017-Jun-14 22:57N 34°27' W 124°48'817.8
2017-Jun-14 22:30N 34°28' W 124°58'917.5
2017-Jun-14 22:00N 34°29' W 125°08'917.7
2017-Jun-14 21:30N 34°30' W 125°19'917.5
2017-Jun-14 21:00N 34°32' W 125°29'  

Dump ship's entire track history